sensor_id;sensor_type;location;lat;lon;timestamp;temperature;humidity
11239;DHT22;5677;48.488;13.436;2024-01-16T00:02:12;11.10;47.20
11239;DHT22;5677;48.488;13.436;2024-01-16T00:04:40;11.10;47.20
11239;DHT22;5677;48.488;13.436;2024-01-16T00:07:07;11.10;47.10
11239;DHT22;5677;48.488;13.436;2024-01-16T00:09:33;11.10;47.20
11239;DHT22;5677;48.488;13.436;2024-01-16T00:12:01;11.10;47.20
11239;DHT22;5677;48.488;13.436;2024-01-16T00:14:28;11.10;47.20
11239;DHT22;5677;48.488;13.436;2024-01-16T00:16:55;11.10;47.20
11239;DHT22;5677;48.488;13.436;2024-01-16T00:19:21;11.10;47.20
11239;DHT22;5677;48.488;13.436;2024-01-16T00:21:49;11.00;47.10
11239;DHT22;5677;48.488;13.436;2024-01-16T00:24:16;11.10;47.20
11239;DHT22;5677;48.488;13.436;2024-01-16T00:26:43;11.00;47.10
11239;DHT22;5677;48.488;13.436;2024-01-16T00:29:12;11.10;47.20
11239;DHT22;5677;48.488;13.436;2024-01-16T00:31:38;11.10;47.20
11239;DHT22;5677;48.488;13.436;2024-01-16T00:34:05;11.00;47.20
11239;DHT22;5677;48.488;13.436;2024-01-16T00:36:32;11.00;47.20
11239;DHT22;5677;48.488;13.436;2024-01-16T00:39:00;11.00;47.10
11239;DHT22;5677;48.488;13.436;2024-01-16T00:41:28;11.00;47.10
11239;DHT22;5677;48.488;13.436;2024-01-16T00:43:55;11.00;47.10
11239;DHT22;5677;48.488;13.436;2024-01-16T00:46:22;11.00;47.10
11239;DHT22;5677;48.488;13.436;2024-01-16T00:48:48;11.00;47.10
11239;DHT22;5677;48.488;13.436;2024-01-16T00:51:15;11.00;47.10
11239;DHT22;5677;48.488;13.436;2024-01-16T00:53:42;11.00;47.10
11239;DHT22;5677;48.488;13.436;2024-01-16T00:56:11;11.00;47.10
11239;DHT22;5677;48.488;13.436;2024-01-16T00:58:38;11.00;47.10
11239;DHT22;5677;48.488;13.436;2024-01-16T01:01:05;11.00;47.10
11239;DHT22;5677;48.488;13.436;2024-01-16T01:03:32;11.00;47.20
11239;DHT22;5677;48.488;13.436;2024-01-16T01:06:00;11.00;47.20
11239;DHT22;5677;48.488;13.436;2024-01-16T01:08:27;11.00;47.20
11239;DHT22;5677;48.488;13.436;2024-01-16T01:10:53;11.00;47.20
11239;DHT22;5677;48.488;13.436;2024-01-16T01:13:22;10.90;47.20
11239;DHT22;5677;48.488;13.436;2024-01-16T01:15:50;11.00;47.20
11239;DHT22;5677;48.488;13.436;2024-01-16T01:18:17;10.90;47.20
11239;DHT22;5677;48.488;13.436;2024-01-16T01:20:44;11.00;47.10
11239;DHT22;5677;48.488;13.436;2024-01-16T01:23:10;11.00;47.20
11239;DHT22;5677;48.488;13.436;2024-01-16T01:25:37;10.90;47.20
11239;DHT22;5677;48.488;13.436;2024-01-16T01:28:04;10.90;47.20
11239;DHT22;5677;48.488;13.436;2024-01-16T01:30:33;10.90;47.20
11239;DHT22;5677;48.488;13.436;2024-01-16T01:32:59;10.90;47.20
11239;DHT22;5677;48.488;13.436;2024-01-16T01:35:26;10.90;47.20
11239;DHT22;5677;48.488;13.436;2024-01-16T01:37:53;10.90;47.10
11239;DHT22;5677;48.488;13.436;2024-01-16T01:40:20;10.90;47.10
11239;DHT22;5677;48.488;13.436;2024-01-16T01:42:46;10.90;47.10
11239;DHT22;5677;48.488;13.436;2024-01-16T01:45:13;10.90;47.10
11239;DHT22;5677;48.488;13.436;2024-01-16T01:47:42;10.90;47.80
11239;DHT22;5677;48.488;13.436;2024-01-16T01:50:09;10.90;47.10
11239;DHT22;5677;48.488;13.436;2024-01-16T01:52:36;10.90;47.20
11239;DHT22;5677;48.488;13.436;2024-01-16T01:55:06;10.90;47.20
11239;DHT22;5677;48.488;13.436;2024-01-16T01:57:34;10.90;47.20
11239;DHT22;5677;48.488;13.436;2024-01-16T02:00:02;10.80;47.10
11239;DHT22;5677;48.488;13.436;2024-01-16T02:02:30;10.90;47.20
11239;DHT22;5677;48.488;13.436;2024-01-16T02:04:58;10.80;47.10
11239;DHT22;5677;48.488;13.436;2024-01-16T02:07:25;10.80;47.00
11239;DHT22;5677;48.488;13.436;2024-01-16T02:09:52;10.80;47.10
11239;DHT22;5677;48.488;13.436;2024-01-16T02:12:19;10.80;47.10
11239;DHT22;5677;48.488;13.436;2024-01-16T02:14:46;10.80;47.10
11239;DHT22;5677;48.488;13.436;2024-01-16T02:17:13;10.90;47.20
11239;DHT22;5677;48.488;13.436;2024-01-16T02:19:39;10.80;47.10
11239;DHT22;5677;48.488;13.436;2024-01-16T02:22:09;10.80;47.00
11239;DHT22;5677;48.488;13.436;2024-01-16T02:24:40;10.80;47.10
11239;DHT22;5677;48.488;13.436;2024-01-16T02:27:07;10.80;47.10
11239;DHT22;5677;48.488;13.436;2024-01-16T02:29:34;10.80;47.10
11239;DHT22;5677;48.488;13.436;2024-01-16T02:32:02;10.80;47.20
11239;DHT22;5677;48.488;13.436;2024-01-16T02:34:29;10.80;47.10
11239;DHT22;5677;48.488;13.436;2024-01-16T02:36:56;10.80;47.10
11239;DHT22;5677;48.488;13.436;2024-01-16T02:39:23;10.80;47.10
11239;DHT22;5677;48.488;13.436;2024-01-16T02:41:51;10.80;47.00
11239;DHT22;5677;48.488;13.436;2024-01-16T02:44:18;10.80;47.10
11239;DHT22;5677;48.488;13.436;2024-01-16T02:46:45;10.80;47.10
11239;DHT22;5677;48.488;13.436;2024-01-16T02:49:12;10.70;47.10
11239;DHT22;5677;48.488;13.436;2024-01-16T02:51:38;10.80;47.10
11239;DHT22;5677;48.488;13.436;2024-01-16T02:54:06;10.80;47.00
11239;DHT22;5677;48.488;13.436;2024-01-16T02:56:33;10.70;47.10
11239;DHT22;5677;48.488;13.436;2024-01-16T02:59:01;10.80;47.10
11239;DHT22;5677;48.488;13.436;2024-01-16T03:01:28;10.80;47.70
11239;DHT22;5677;48.488;13.436;2024-01-16T03:03:55;10.70;47.10
11239;DHT22;5677;48.488;13.436;2024-01-16T03:06:22;10.80;47.00
11239;DHT22;5677;48.488;13.436;2024-01-16T03:08:49;10.70;47.00
11239;DHT22;5677;48.488;13.436;2024-01-16T03:11:16;10.80;47.00
11239;DHT22;5677;48.488;13.436;2024-01-16T03:13:43;10.70;47.10
11239;DHT22;5677;48.488;13.436;2024-01-16T03:16:12;10.80;47.10
11239;DHT22;5677;48.488;13.436;2024-01-16T03:18:39;10.70;47.10
11239;DHT22;5677;48.488;13.436;2024-01-16T03:21:07;10.70;47.10
11239;DHT22;5677;48.488;13.436;2024-01-16T03:23:34;10.70;47.00
11239;DHT22;5677;48.488;13.436;2024-01-16T03:26:00;10.70;47.00
11239;DHT22;5677;48.488;13.436;2024-01-16T03:28:29;10.70;47.10
11239;DHT22;5677;48.488;13.436;2024-01-16T03:30:55;10.70;47.00
11239;DHT22;5677;48.488;13.436;2024-01-16T03:33:24;10.70;47.10
11239;DHT22;5677;48.488;13.436;2024-01-16T03:35:50;10.70;47.10
11239;DHT22;5677;48.488;13.436;2024-01-16T03:38:18;10.70;47.10
11239;DHT22;5677;48.488;13.436;2024-01-16T03:40:44;10.70;47.00
11239;DHT22;5677;48.488;13.436;2024-01-16T03:43:11;10.70;47.00
11239;DHT22;5677;48.488;13.436;2024-01-16T03:45:38;10.70;47.10
11239;DHT22;5677;48.488;13.436;2024-01-16T03:48:05;10.70;47.10
11239;DHT22;5677;48.488;13.436;2024-01-16T03:50:33;10.70;47.10
11239;DHT22;5677;48.488;13.436;2024-01-16T03:53:01;10.70;47.10
11239;DHT22;5677;48.488;13.436;2024-01-16T03:55:29;10.70;47.10
11239;DHT22;5677;48.488;13.436;2024-01-16T03:57:56;10.70;47.20
11239;DHT22;5677;48.488;13.436;2024-01-16T04:00:22;10.70;47.10
11239;DHT22;5677;48.488;13.436;2024-01-16T04:02:49;10.60;47.00
11239;DHT22;5677;48.488;13.436;2024-01-16T04:05:16;10.70;47.10
11239;DHT22;5677;48.488;13.436;2024-01-16T04:07:44;10.60;47.00
11239;DHT22;5677;48.488;13.436;2024-01-16T04:10:11;10.70;47.10
11239;DHT22;5677;48.488;13.436;2024-01-16T04:12:37;10.60;47.00
11239;DHT22;5677;48.488;13.436;2024-01-16T04:15:05;10.60;47.00
11239;DHT22;5677;48.488;13.436;2024-01-16T04:17:31;10.60;47.00
11239;DHT22;5677;48.488;13.436;2024-01-16T04:19:58;10.60;46.90
11239;DHT22;5677;48.488;13.436;2024-01-16T04:22:25;10.60;46.90
11239;DHT22;5677;48.488;13.436;2024-01-16T04:24:53;10.60;47.00
11239;DHT22;5677;48.488;13.436;2024-01-16T04:27:20;10.60;47.00
11239;DHT22;5677;48.488;13.436;2024-01-16T04:29:47;10.60;47.10
11239;DHT22;5677;48.488;13.436;2024-01-16T04:32:13;10.60;47.00
11239;DHT22;5677;48.488;13.436;2024-01-16T04:34:40;10.60;47.00
11239;DHT22;5677;48.488;13.436;2024-01-16T04:37:07;10.60;47.00
11239;DHT22;5677;48.488;13.436;2024-01-16T04:39:34;10.60;47.10
11239;DHT22;5677;48.488;13.436;2024-01-16T04:42:02;10.60;47.00
11239;DHT22;5677;48.488;13.436;2024-01-16T04:44:29;10.60;47.00
11239;DHT22;5677;48.488;13.436;2024-01-16T04:46:56;10.60;47.00
11239;DHT22;5677;48.488;13.436;2024-01-16T04:49:22;10.60;47.00
11239;DHT22;5677;48.488;13.436;2024-01-16T04:51:49;10.60;47.00
11239;DHT22;5677;48.488;13.436;2024-01-16T04:54:16;10.60;47.00
11239;DHT22;5677;48.488;13.436;2024-01-16T04:56:43;10.60;47.10
11239;DHT22;5677;48.488;13.436;2024-01-16T04:59:11;10.60;47.10
11239;DHT22;5677;48.488;13.436;2024-01-16T05:01:37;10.60;47.10
11239;DHT22;5677;48.488;13.436;2024-01-16T05:04:05;10.60;47.10
11239;DHT22;5677;48.488;13.436;2024-01-16T05:06:33;10.60;47.00
11239;DHT22;5677;48.488;13.436;2024-01-16T05:09:00;10.60;47.10
11239;DHT22;5677;48.488;13.436;2024-01-16T05:11:28;10.50;47.10
11239;DHT22;5677;48.488;13.436;2024-01-16T05:13:55;10.60;47.00
11239;DHT22;5677;48.488;13.436;2024-01-16T05:16:24;10.50;47.00
11239;DHT22;5677;48.488;13.436;2024-01-16T05:18:51;10.60;47.00
11239;DHT22;5677;48.488;13.436;2024-01-16T05:21:18;10.60;47.00
11239;DHT22;5677;48.488;13.436;2024-01-16T05:23:44;10.60;47.00
11239;DHT22;5677;48.488;13.436;2024-01-16T05:26:12;10.50;47.10
11239;DHT22;5677;48.488;13.436;2024-01-16T05:28:39;10.50;47.00
11239;DHT22;5677;48.488;13.436;2024-01-16T05:31:05;10.50;47.10
11239;DHT22;5677;48.488;13.436;2024-01-16T05:33:34;10.50;47.00
11239;DHT22;5677;48.488;13.436;2024-01-16T05:36:00;10.50;47.00
11239;DHT22;5677;48.488;13.436;2024-01-16T05:38:27;10.50;47.00
11239;DHT22;5677;48.488;13.436;2024-01-16T05:40:54;10.50;47.00
11239;DHT22;5677;48.488;13.436;2024-01-16T05:43:21;10.50;47.00
11239;DHT22;5677;48.488;13.436;2024-01-16T05:45:48;10.50;47.00
11239;DHT22;5677;48.488;13.436;2024-01-16T05:48:15;10.50;47.00
11239;DHT22;5677;48.488;13.436;2024-01-16T05:50:43;10.50;47.10
11239;DHT22;5677;48.488;13.436;2024-01-16T05:53:10;10.50;47.10
11239;DHT22;5677;48.488;13.436;2024-01-16T05:55:37;10.50;47.10
11239;DHT22;5677;48.488;13.436;2024-01-16T05:58:04;10.50;47.20
11239;DHT22;5677;48.488;13.436;2024-01-16T06:00:30;10.50;47.20
11239;DHT22;5677;48.488;13.436;2024-01-16T06:02:59;10.50;47.20
11239;DHT22;5677;48.488;13.436;2024-01-16T06:05:26;10.50;47.90
11239;DHT22;5677;48.488;13.436;2024-01-16T06:07:54;10.50;47.20
11239;DHT22;5677;48.488;13.436;2024-01-16T06:10:20;10.50;47.20
11239;DHT22;5677;48.488;13.436;2024-01-16T06:12:47;10.60;47.20
11239;DHT22;5677;48.488;13.436;2024-01-16T06:15:14;10.60;47.20
11239;DHT22;5677;48.488;13.436;2024-01-16T06:17:41;10.60;47.20
11239;DHT22;5677;48.488;13.436;2024-01-16T06:20:08;10.60;47.20
11239;DHT22;5677;48.488;13.436;2024-01-16T06:22:36;10.60;47.20
11239;DHT22;5677;48.488;13.436;2024-01-16T06:25:04;10.60;47.20
11239;DHT22;5677;48.488;13.436;2024-01-16T06:27:31;10.60;47.20
11239;DHT22;5677;48.488;13.436;2024-01-16T06:29:58;10.60;47.20
11239;DHT22;5677;48.488;13.436;2024-01-16T06:32:25;10.60;47.20
11239;DHT22;5677;48.488;13.436;2024-01-16T06:34:52;10.60;47.20
11239;DHT22;5677;48.488;13.436;2024-01-16T06:37:19;10.60;47.20
11239;DHT22;5677;48.488;13.436;2024-01-16T06:39:46;10.60;47.20
11239;DHT22;5677;48.488;13.436;2024-01-16T06:42:14;10.60;47.20
11239;DHT22;5677;48.488;13.436;2024-01-16T06:44:41;10.60;47.20
11239;DHT22;5677;48.488;13.436;2024-01-16T06:47:07;10.70;47.40
11239;DHT22;5677;48.488;13.436;2024-01-16T06:49:34;10.70;47.40
11239;DHT22;5677;48.488;13.436;2024-01-16T06:52:01;10.70;47.40
11239;DHT22;5677;48.488;13.436;2024-01-16T06:54:27;10.60;47.30
11239;DHT22;5677;48.488;13.436;2024-01-16T06:56:54;10.70;47.40
11239;DHT22;5677;48.488;13.436;2024-01-16T06:59:22;10.70;47.30
11239;DHT22;5677;48.488;13.436;2024-01-16T07:01:49;10.70;47.40
11239;DHT22;5677;48.488;13.436;2024-01-16T07:04:17;10.70;47.40
11239;DHT22;5677;48.488;13.436;2024-01-16T07:06:43;10.70;47.40
11239;DHT22;5677;48.488;13.436;2024-01-16T07:09:10;10.80;47.40
11239;DHT22;5677;48.488;13.436;2024-01-16T07:11:37;10.80;47.40
11239;DHT22;5677;48.488;13.436;2024-01-16T07:14:08;10.80;47.30
11239;DHT22;5677;48.488;13.436;2024-01-16T07:16:36;10.80;47.30
11239;DHT22;5677;48.488;13.436;2024-01-16T07:19:03;10.80;47.30
11239;DHT22;5677;48.488;13.436;2024-01-16T07:21:30;10.80;47.30
11239;DHT22;5677;48.488;13.436;2024-01-16T07:23:56;10.80;47.30
11239;DHT22;5677;48.488;13.436;2024-01-16T07:26:23;10.80;47.20
11239;DHT22;5677;48.488;13.436;2024-01-16T07:28:50;10.80;47.30
11239;DHT22;5677;48.488;13.436;2024-01-16T07:31:17;10.80;47.20
11239;DHT22;5677;48.488;13.436;2024-01-16T07:33:45;10.80;47.20
11239;DHT22;5677;48.488;13.436;2024-01-16T07:36:13;10.80;47.20
11239;DHT22;5677;48.488;13.436;2024-01-16T07:38:40;10.80;47.20
11239;DHT22;5677;48.488;13.436;2024-01-16T07:41:06;10.80;47.20
11239;DHT22;5677;48.488;13.436;2024-01-16T07:43:33;10.80;47.20
11239;DHT22;5677;48.488;13.436;2024-01-16T07:46:01;10.80;47.20
11239;DHT22;5677;48.488;13.436;2024-01-16T07:48:28;10.80;47.10
11239;DHT22;5677;48.488;13.436;2024-01-16T07:50:56;10.80;47.10
11239;DHT22;5677;48.488;13.436;2024-01-16T07:53:23;10.80;47.10
11239;DHT22;5677;48.488;13.436;2024-01-16T07:55:53;10.80;47.10
11239;DHT22;5677;48.488;13.436;2024-01-16T07:58:20;10.80;47.10
11239;DHT22;5677;48.488;13.436;2024-01-16T08:00:47;10.90;47.20
11239;DHT22;5677;48.488;13.436;2024-01-16T08:03:14;10.90;47.20
11239;DHT22;5677;48.488;13.436;2024-01-16T08:05:41;10.90;47.20
11239;DHT22;5677;48.488;13.436;2024-01-16T08:08:09;10.90;47.20
11239;DHT22;5677;48.488;13.436;2024-01-16T08:10:36;10.90;47.20
11239;DHT22;5677;48.488;13.436;2024-01-16T08:13:03;10.90;47.20
11239;DHT22;5677;48.488;13.436;2024-01-16T08:15:30;10.90;47.20
11239;DHT22;5677;48.488;13.436;2024-01-16T08:17:57;10.90;47.20
11239;DHT22;5677;48.488;13.436;2024-01-16T08:20:23;10.90;47.10
11239;DHT22;5677;48.488;13.436;2024-01-16T08:22:50;10.90;47.10
11239;DHT22;5677;48.488;13.436;2024-01-16T08:25:18;10.90;47.10
11239;DHT22;5677;48.488;13.436;2024-01-16T08:27:45;10.90;47.10
11239;DHT22;5677;48.488;13.436;2024-01-16T08:30:12;11.00;47.00
11239;DHT22;5677;48.488;13.436;2024-01-16T08:32:39;10.90;47.00
11239;DHT22;5677;48.488;13.436;2024-01-16T08:35:06;11.00;47.00
11239;DHT22;5677;48.488;13.436;2024-01-16T08:37:34;11.00;47.00
11239;DHT22;5677;48.488;13.436;2024-01-16T08:40:01;11.00;47.00
11239;DHT22;5677;48.488;13.436;2024-01-16T08:42:30;11.00;47.00
11239;DHT22;5677;48.488;13.436;2024-01-16T08:44:57;11.00;47.00
11239;DHT22;5677;48.488;13.436;2024-01-16T08:47:24;11.00;46.90
11239;DHT22;5677;48.488;13.436;2024-01-16T08:49:51;11.00;46.90
11239;DHT22;5677;48.488;13.436;2024-01-16T08:52:18;11.00;46.90
11239;DHT22;5677;48.488;13.436;2024-01-16T08:54:44;11.00;46.80
11239;DHT22;5677;48.488;13.436;2024-01-16T08:57:11;11.00;46.80
11239;DHT22;5677;48.488;13.436;2024-01-16T08:59:40;11.10;46.80
11239;DHT22;5677;48.488;13.436;2024-01-16T09:02:07;11.10;46.80
11239;DHT22;5677;48.488;13.436;2024-01-16T09:04:34;11.10;46.80
11239;DHT22;5677;48.488;13.436;2024-01-16T09:07:01;11.10;46.70
11239;DHT22;5677;48.488;13.436;2024-01-16T09:09:30;11.10;46.70
11239;DHT22;5677;48.488;13.436;2024-01-16T09:11:56;11.20;46.70
11239;DHT22;5677;48.488;13.436;2024-01-16T09:14:24;11.20;46.60
11239;DHT22;5677;48.488;13.436;2024-01-16T09:16:53;11.20;46.60
11239;DHT22;5677;48.488;13.436;2024-01-16T09:19:20;11.30;46.50
11239;DHT22;5677;48.488;13.436;2024-01-16T09:21:47;11.30;46.50
11239;DHT22;5677;48.488;13.436;2024-01-16T09:24:14;11.30;46.50
11239;DHT22;5677;48.488;13.436;2024-01-16T09:26:40;11.30;46.40
11239;DHT22;5677;48.488;13.436;2024-01-16T09:29:08;11.30;46.40
11239;DHT22;5677;48.488;13.436;2024-01-16T09:31:35;11.30;46.40
11239;DHT22;5677;48.488;13.436;2024-01-16T09:34:04;11.30;46.40
11239;DHT22;5677;48.488;13.436;2024-01-16T09:36:30;11.20;46.30
11239;DHT22;5677;48.488;13.436;2024-01-16T09:38:57;11.30;46.40
11239;DHT22;5677;48.488;13.436;2024-01-16T09:41:24;11.30;46.50
11239;DHT22;5677;48.488;13.436;2024-01-16T09:43:51;11.30;46.40
11239;DHT22;5677;48.488;13.436;2024-01-16T09:46:20;11.30;46.50
11239;DHT22;5677;48.488;13.436;2024-01-16T09:48:49;11.30;46.50
11239;DHT22;5677;48.488;13.436;2024-01-16T09:51:18;11.30;46.50
11239;DHT22;5677;48.488;13.436;2024-01-16T09:53:45;11.30;46.50
11239;DHT22;5677;48.488;13.436;2024-01-16T09:56:15;11.30;46.50
11239;DHT22;5677;48.488;13.436;2024-01-16T09:58:43;11.30;46.50
11239;DHT22;5677;48.488;13.436;2024-01-16T10:01:11;11.30;46.50
11239;DHT22;5677;48.488;13.436;2024-01-16T10:03:38;11.30;47.10
11239;DHT22;5677;48.488;13.436;2024-01-16T10:06:07;11.30;46.50
11239;DHT22;5677;48.488;13.436;2024-01-16T10:08:37;11.30;46.50
11239;DHT22;5677;48.488;13.436;2024-01-16T10:11:04;11.30;46.50
11239;DHT22;5677;48.488;13.436;2024-01-16T10:13:31;11.30;46.60
11239;DHT22;5677;48.488;13.436;2024-01-16T10:15:59;11.30;46.50
11239;DHT22;5677;48.488;13.436;2024-01-16T10:18:26;11.30;46.50
11239;DHT22;5677;48.488;13.436;2024-01-16T10:20:55;11.30;46.50
11239;DHT22;5677;48.488;13.436;2024-01-16T10:23:25;11.30;46.60
11239;DHT22;5677;48.488;13.436;2024-01-16T10:26:17;11.30;46.60
11239;DHT22;5677;48.488;13.436;2024-01-16T10:28:44;11.30;46.60
11239;DHT22;5677;48.488;13.436;2024-01-16T10:31:12;11.30;46.60
11239;DHT22;5677;48.488;13.436;2024-01-16T10:33:39;11.30;46.50
11239;DHT22;5677;48.488;13.436;2024-01-16T10:36:11;11.30;46.50
11239;DHT22;5677;48.488;13.436;2024-01-16T10:38:38;11.30;46.50
11239;DHT22;5677;48.488;13.436;2024-01-16T10:41:15;11.30;46.50
11239;DHT22;5677;48.488;13.436;2024-01-16T10:43:44;11.30;46.50
11239;DHT22;5677;48.488;13.436;2024-01-16T10:46:13;11.30;46.50
11239;DHT22;5677;48.488;13.436;2024-01-16T10:48:42;11.30;46.50
11239;DHT22;5677;48.488;13.436;2024-01-16T10:51:10;11.30;46.50
11239;DHT22;5677;48.488;13.436;2024-01-16T10:53:42;11.30;46.50
11239;DHT22;5677;48.488;13.436;2024-01-16T10:56:10;11.30;46.50
11239;DHT22;5677;48.488;13.436;2024-01-16T10:58:40;11.40;46.50
11239;DHT22;5677;48.488;13.436;2024-01-16T11:01:10;11.30;46.50
11239;DHT22;5677;48.488;13.436;2024-01-16T11:03:41;11.40;46.50
11239;DHT22;5677;48.488;13.436;2024-01-16T11:06:10;11.40;46.40
11239;DHT22;5677;48.488;13.436;2024-01-16T11:08:39;11.40;46.50
11239;DHT22;5677;48.488;13.436;2024-01-16T11:11:06;11.40;46.40
11239;DHT22;5677;48.488;13.436;2024-01-16T11:13:35;11.40;46.40
11239;DHT22;5677;48.488;13.436;2024-01-16T11:16:03;11.40;46.40
11239;DHT22;5677;48.488;13.436;2024-01-16T11:18:32;11.40;46.40
11239;DHT22;5677;48.488;13.436;2024-01-16T11:21:00;11.40;46.40
11239;DHT22;5677;48.488;13.436;2024-01-16T11:23:27;11.40;46.40
11239;DHT22;5677;48.488;13.436;2024-01-16T11:25:54;11.40;46.50
11239;DHT22;5677;48.488;13.436;2024-01-16T11:28:27;11.40;46.40
11239;DHT22;5677;48.488;13.436;2024-01-16T11:30:55;11.40;46.40
11239;DHT22;5677;48.488;13.436;2024-01-16T11:33:45;11.40;46.40
11239;DHT22;5677;48.488;13.436;2024-01-16T11:39:19;11.40;46.40
11239;DHT22;5677;48.488;13.436;2024-01-16T11:41:50;11.40;46.40
11239;DHT22;5677;48.488;13.436;2024-01-16T11:44:37;11.50;46.50
11239;DHT22;5677;48.488;13.436;2024-01-16T11:47:04;11.50;46.50
11239;DHT22;5677;48.488;13.436;2024-01-16T11:49:32;11.50;46.40
11239;DHT22;5677;48.488;13.436;2024-01-16T11:51:59;11.50;46.40
11239;DHT22;5677;48.488;13.436;2024-01-16T11:54:26;11.50;46.30
11239;DHT22;5677;48.488;13.436;2024-01-16T11:57:12;11.50;46.30
11239;DHT22;5677;48.488;13.436;2024-01-16T11:59:58;11.50;46.30
11239;DHT22;5677;48.488;13.436;2024-01-16T12:02:38;11.50;46.30
11239;DHT22;5677;48.488;13.436;2024-01-16T12:05:07;11.50;46.30
11239;DHT22;5677;48.488;13.436;2024-01-16T12:07:45;11.60;46.30
11239;DHT22;5677;48.488;13.436;2024-01-16T12:10:12;11.60;46.20
11239;DHT22;5677;48.488;13.436;2024-01-16T12:12:39;11.60;46.90
11239;DHT22;5677;48.488;13.436;2024-01-16T12:15:07;11.60;46.20
11239;DHT22;5677;48.488;13.436;2024-01-16T12:17:39;11.60;46.20
11239;DHT22;5677;48.488;13.436;2024-01-16T12:20:18;11.60;46.20
11239;DHT22;5677;48.488;13.436;2024-01-16T12:22:45;11.60;46.20
11239;DHT22;5677;48.488;13.436;2024-01-16T12:25:11;11.60;46.10
11239;DHT22;5677;48.488;13.436;2024-01-16T12:27:38;11.70;46.20
11239;DHT22;5677;48.488;13.436;2024-01-16T12:30:06;11.70;46.20
11239;DHT22;5677;48.488;13.436;2024-01-16T12:32:33;11.70;46.20
11239;DHT22;5677;48.488;13.436;2024-01-16T12:35:00;11.60;46.00
11239;DHT22;5677;48.488;13.436;2024-01-16T12:37:28;11.70;46.10
11239;DHT22;5677;48.488;13.436;2024-01-16T12:39:55;11.70;46.10
11239;DHT22;5677;48.488;13.436;2024-01-16T12:42:23;11.70;46.10
11239;DHT22;5677;48.488;13.436;2024-01-16T12:44:51;11.70;46.80
11239;DHT22;5677;48.488;13.436;2024-01-16T12:47:18;11.70;46.00
11239;DHT22;5677;48.488;13.436;2024-01-16T12:49:46;11.70;45.90
11239;DHT22;5677;48.488;13.436;2024-01-16T12:52:17;11.80;45.90
11239;DHT22;5677;48.488;13.436;2024-01-16T12:54:47;11.80;45.80
11239;DHT22;5677;48.488;13.436;2024-01-16T12:57:18;11.90;45.70
11239;DHT22;5677;48.488;13.436;2024-01-16T12:59:46;11.90;45.60
11239;DHT22;5677;48.488;13.436;2024-01-16T13:02:20;11.90;45.60
11239;DHT22;5677;48.488;13.436;2024-01-16T13:04:48;11.90;45.60
11239;DHT22;5677;48.488;13.436;2024-01-16T13:07:22;11.90;45.60
11239;DHT22;5677;48.488;13.436;2024-01-16T13:09:50;11.90;45.60
11239;DHT22;5677;48.488;13.436;2024-01-16T13:12:19;11.80;45.70
11239;DHT22;5677;48.488;13.436;2024-01-16T13:14:47;11.80;45.80
11239;DHT22;5677;48.488;13.436;2024-01-16T13:17:13;11.70;45.90
11239;DHT22;5677;48.488;13.436;2024-01-16T13:19:41;11.70;46.00
11239;DHT22;5677;48.488;13.436;2024-01-16T13:22:07;11.70;46.10
11239;DHT22;5677;48.488;13.436;2024-01-16T13:24:34;11.70;46.10
11239;DHT22;5677;48.488;13.436;2024-01-16T13:27:03;11.70;46.20
11239;DHT22;5677;48.488;13.436;2024-01-16T13:29:33;11.70;46.30
11239;DHT22;5677;48.488;13.436;2024-01-16T13:32:01;11.60;46.20
11239;DHT22;5677;48.488;13.436;2024-01-16T13:34:28;11.60;46.20
11239;DHT22;5677;48.488;13.436;2024-01-16T13:36:55;11.60;46.20
11239;DHT22;5677;48.488;13.436;2024-01-16T13:39:25;11.60;46.20
11239;DHT22;5677;48.488;13.436;2024-01-16T13:41:51;11.60;46.20
11239;DHT22;5677;48.488;13.436;2024-01-16T13:44:20;11.60;46.30
11239;DHT22;5677;48.488;13.436;2024-01-16T13:46:46;11.50;46.40
11239;DHT22;5677;48.488;13.436;2024-01-16T13:49:13;11.50;46.40
11239;DHT22;5677;48.488;13.436;2024-01-16T13:51:43;11.60;46.40
11239;DHT22;5677;48.488;13.436;2024-01-16T13:54:10;11.60;46.40
11239;DHT22;5677;48.488;13.436;2024-01-16T13:56:37;11.60;46.40
11239;DHT22;5677;48.488;13.436;2024-01-16T13:59:04;11.50;46.40
11239;DHT22;5677;48.488;13.436;2024-01-16T14:01:32;11.50;46.50
11239;DHT22;5677;48.488;13.436;2024-01-16T14:03:59;11.60;46.40
11239;DHT22;5677;48.488;13.436;2024-01-16T14:06:26;11.60;46.50
11239;DHT22;5677;48.488;13.436;2024-01-16T14:08:53;11.60;46.50
11239;DHT22;5677;48.488;13.436;2024-01-16T14:11:20;11.60;46.50
11239;DHT22;5677;48.488;13.436;2024-01-16T14:13:46;11.60;46.50
11239;DHT22;5677;48.488;13.436;2024-01-16T14:16:13;11.60;46.50
11239;DHT22;5677;48.488;13.436;2024-01-16T14:18:41;11.60;46.50
11239;DHT22;5677;48.488;13.436;2024-01-16T14:21:08;11.60;46.60
11239;DHT22;5677;48.488;13.436;2024-01-16T14:23:35;11.60;46.50
11239;DHT22;5677;48.488;13.436;2024-01-16T14:26:03;11.50;46.50
11239;DHT22;5677;48.488;13.436;2024-01-16T14:28:30;11.60;46.50
11239;DHT22;5677;48.488;13.436;2024-01-16T14:30:59;11.50;46.50
11239;DHT22;5677;48.488;13.436;2024-01-16T14:33:26;11.60;46.50
11239;DHT22;5677;48.488;13.436;2024-01-16T14:35:54;11.60;47.20
11239;DHT22;5677;48.488;13.436;2024-01-16T14:38:21;11.60;46.60
11239;DHT22;5677;48.488;13.436;2024-01-16T14:40:48;11.60;46.50
11239;DHT22;5677;48.488;13.436;2024-01-16T14:43:17;11.60;46.60
11239;DHT22;5677;48.488;13.436;2024-01-16T14:45:44;11.50;46.60
11239;DHT22;5677;48.488;13.436;2024-01-16T14:48:11;11.50;46.60
11239;DHT22;5677;48.488;13.436;2024-01-16T14:50:37;11.50;46.70
11239;DHT22;5677;48.488;13.436;2024-01-16T14:53:06;11.50;46.60
11239;DHT22;5677;48.488;13.436;2024-01-16T14:55:32;11.50;46.60
11239;DHT22;5677;48.488;13.436;2024-01-16T14:57:59;11.50;46.70
11239;DHT22;5677;48.488;13.436;2024-01-16T15:00:27;11.50;46.70
11239;DHT22;5677;48.488;13.436;2024-01-16T15:02:54;11.50;46.70
11239;DHT22;5677;48.488;13.436;2024-01-16T15:05:22;11.50;46.70
11239;DHT22;5677;48.488;13.436;2024-01-16T15:07:49;11.50;46.70
11239;DHT22;5677;48.488;13.436;2024-01-16T15:10:19;11.50;46.70
11239;DHT22;5677;48.488;13.436;2024-01-16T15:12:46;11.50;46.70
11239;DHT22;5677;48.488;13.436;2024-01-16T15:15:13;11.50;46.70
11239;DHT22;5677;48.488;13.436;2024-01-16T15:17:41;11.50;46.70
11239;DHT22;5677;48.488;13.436;2024-01-16T15:20:09;11.50;47.40
11239;DHT22;5677;48.488;13.436;2024-01-16T15:22:37;11.50;46.80
11239;DHT22;5677;48.488;13.436;2024-01-16T15:25:05;11.50;46.80
11239;DHT22;5677;48.488;13.436;2024-01-16T15:27:33;11.50;46.70
11239;DHT22;5677;48.488;13.436;2024-01-16T15:30:01;11.50;46.80
11239;DHT22;5677;48.488;13.436;2024-01-16T15:32:29;11.50;46.80
11239;DHT22;5677;48.488;13.436;2024-01-16T15:34:56;11.50;46.80
11239;DHT22;5677;48.488;13.436;2024-01-16T15:37:23;11.50;46.80